Aviation Digital Data Service (ADDS)

Output produced by METARs form (0137 UTC 25 March 2019)
found at http://www.aviationweather.gov/metar/data/
 
METAR text: KBTR 250053Z 19010KT 10SM CLR 21/14 A3010 RMK AO2 SLP193 T02110144
Conditions at: KBTR (BATON ROUGE , LA, US) observed 0053 UTC 25 March 2019
Temperature: 21.1°C (70°F)
Dewpoint: 14.4°C (58°F) [RH = 66%]
Pressure (altimeter): 30.10 inches Hg (1019.4 mb)
[Sea-level pressure: 1019.3 mb]
Winds: from the S (190 degrees) at 12 MPH (10 knots; 5.1 m/s)
Visibility: 10 or more miles (16+ km)
Ceiling: at least 12,000 feet AGL
Clouds: sky clear below 12,000 feet AGL
Weather: no significant weather observed at this time

METAR text: KBTR 242353Z 20008KT 10SM FEW045 BKN090 22/13 A3011 RMK AO2 SLP195 T02220133 10261 20222 55001
Conditions at: KBTR (BATON ROUGE , LA, US) observed 2353 UTC 24 March 2019
Temperature: 22.2°C (72°F)
Dewpoint: 13.3°C (56°F) [RH = 57%]
Pressure (altimeter): 30.11 inches Hg (1019.7 mb)
[Sea-level pressure: 1019.5 mb]
Winds: from the SSW (200 degrees) at 9 MPH (8 knots; 4.1 m/s)
Visibility: 10 or more miles (16+ km)
Ceiling: 9000 feet AGL
Clouds: few clouds at 4500 feet AGL
broken clouds at 9000 feet AGL
Weather: no significant weather observed at this time

METAR text: KBTR 242253Z 20010KT 10SM FEW044 SCT050 OVC090 24/14 A3010 RMK AO2 SLP193 T02390139
Conditions at: KBTR (BATON ROUGE , LA, US) observed 2253 UTC 24 March 2019
Temperature: 23.9°C (75°F)
Dewpoint: 13.9°C (57°F) [RH = 54%]
Pressure (altimeter): 30.10 inches Hg (1019.4 mb)
[Sea-level pressure: 1019.3 mb]
Winds: from the SSW (200 degrees) at 12 MPH (10 knots; 5.1 m/s)
Visibility: 10 or more miles (16+ km)
Ceiling: 9000 feet AGL
Clouds: few clouds at 4400 feet AGL
scattered clouds at 5000 feet AGL
overcast cloud deck at 9000 feet AGL
Weather: no significant weather observed at this time

METAR text: KBTR 242153Z 19009KT 10SM OVC048 24/13 A3011 RMK AO2 SLP194 T02390133
Conditions at: KBTR (BATON ROUGE , LA, US) observed 2153 UTC 24 March 2019
Temperature: 23.9°C (75°F)
Dewpoint: 13.3°C (56°F) [RH = 51%]
Pressure (altimeter): 30.11 inches Hg (1019.7 mb)
[Sea-level pressure: 1019.4 mb]
Winds: from the S (190 degrees) at 10 MPH (9 knots; 4.6 m/s)
Visibility: 10 or more miles (16+ km)
Ceiling: 4800 feet AGL
Clouds: overcast cloud deck at 4800 feet AGL
Weather: no significant weather observed at this time

METAR text: KBTR 242053Z 18011G17KT 10SM BKN048 25/13 A3011 RMK AO2 SLP196 T02500128 56021
Conditions at: KBTR (BATON ROUGE , LA, US) observed 2053 UTC 24 March 2019
Temperature: 25.0°C (77°F)
Dewpoint: 12.8°C (55°F) [RH = 47%]
Pressure (altimeter): 30.11 inches Hg (1019.7 mb)
[Sea-level pressure: 1019.6 mb]
Winds: from the S (180 degrees) at 13 MPH (11 knots; 5.7 m/s)
gusting to 20 MPH (17 knots; 8.7 m/s)
Visibility: 10 or more miles (16+ km)
Ceiling: 4800 feet AGL
Clouds: broken clouds at 4800 feet AGL
Weather: no significant weather observed at this time

METAR text: KBTR 241953Z 18008KT 10SM BKN046 OVC095 24/13 A3013 RMK AO2 SLP201 T02390128
Conditions at: KBTR (BATON ROUGE , LA, US) observed 1953 UTC 24 March 2019
Temperature: 23.9°C (75°F)
Dewpoint: 12.8°C (55°F) [RH = 50%]
Pressure (altimeter): 30.13 inches Hg (1020.4 mb)
[Sea-level pressure: 1020.1 mb]
Winds: from the S (180 degrees) at 9 MPH (8 knots; 4.1 m/s)
Visibility: 10 or more miles (16+ km)
Ceiling: 4600 feet AGL
Clouds: broken clouds at 4600 feet AGL
overcast cloud deck at 9500 feet AGL
Weather: no significant weather observed at this time

METAR text: KBTR 241853Z VRB06KT 10SM FEW042 OVC095 24/13 A3015 RMK AO2 SLP208 T02440128
Conditions at: KBTR (BATON ROUGE , LA, US) observed 1853 UTC 24 March 2019
Temperature: 24.4°C (76°F)
Dewpoint: 12.8°C (55°F) [RH = 48%]
Pressure (altimeter): 30.15 inches Hg (1021.1 mb)
[Sea-level pressure: 1020.8 mb]
Winds: variable direction winds at 7 MPH (6 knots; 3.1 m/s)
Visibility: 10 or more miles (16+ km)
Ceiling: 9500 feet AGL
Clouds: few clouds at 4200 feet AGL
overcast cloud deck at 9500 feet AGL
Weather: no significant weather observed at this time

METAR text: KBTR 241753Z 18011KT 10SM BKN036 OVC095 23/13 A3017 RMK AO2 SLP217 T02330133 10233 20100 58011
Conditions at: KBTR (BATON ROUGE , LA, US) observed 1753 UTC 24 March 2019
Temperature: 23.3°C (74°F)
Dewpoint: 13.3°C (56°F) [RH = 53%]
Pressure (altimeter): 30.17 inches Hg (1021.8 mb)
[Sea-level pressure: 1021.7 mb]
Winds: from the S (180 degrees) at 13 MPH (11 knots; 5.7 m/s)
Visibility: 10 or more miles (16+ km)
Ceiling: 3600 feet AGL
Clouds: broken clouds at 3600 feet AGL
overcast cloud deck at 9500 feet AGL
Weather: no significant weather observed at this time

METAR text: KBTR 241653Z 19009KT 10SM BKN033 BKN090 23/14 A3020 RMK AO2 SLP225 T02280139
Conditions at: KBTR (BATON ROUGE , LA, US) observed 1653 UTC 24 March 2019
Temperature: 22.8°C (73°F)
Dewpoint: 13.9°C (57°F) [RH = 57%]
Pressure (altimeter): 30.20 inches Hg (1022.8 mb)
[Sea-level pressure: 1022.5 mb]
Winds: from the S (190 degrees) at 10 MPH (9 knots; 4.6 m/s)
Visibility: 10 or more miles (16+ km)
Ceiling: 3300 feet AGL
Clouds: broken clouds at 3300 feet AGL
broken clouds at 9000 feet AGL
Weather: no significant weather observed at this time

METAR text: KBTR 241553Z 17007KT 10SM SCT033 22/13 A3021 RMK AO2 SLP229 T02170133
Conditions at: KBTR (BATON ROUGE , LA, US) observed 1553 UTC 24 March 2019
Temperature: 21.7°C (71°F)
Dewpoint: 13.3°C (56°F) [RH = 59%]
Pressure (altimeter): 30.21 inches Hg (1023.1 mb)
[Sea-level pressure: 1022.9 mb]
Winds: from the S (170 degrees) at 8 MPH (7 knots; 3.6 m/s)
Visibility: 10 or more miles (16+ km)
Ceiling: at least 12,000 feet AGL
Clouds: scattered clouds at 3300 feet AGL
Weather: no significant weather observed at this time

METAR text: KBTR 241453Z 13005KT 10SM SCT085 18/12 A3021 RMK AO2 SLP228 T01830122 51011
Conditions at: KBTR (BATON ROUGE , LA, US) observed 1453 UTC 24 March 2019
Temperature: 18.3°C (65°F)
Dewpoint: 12.2°C (54°F) [RH = 68%]
Pressure (altimeter): 30.21 inches Hg (1023.1 mb)
[Sea-level pressure: 1022.8 mb]
Winds: from the SE (130 degrees) at 6 MPH (5 knots; 2.6 m/s)
Visibility: 10 or more miles (16+ km)
Ceiling: at least 12,000 feet AGL
Clouds: scattered clouds at 8500 feet AGL
Weather: no significant weather observed at this time

METAR text: KBTR 241353Z 11005KT 7SM CLR 15/12 A3020 RMK AO2 SLP227 T01500122
Conditions at: KBTR (BATON ROUGE , LA, US) observed 1353 UTC 24 March 2019
Temperature: 15.0°C (59°F)
Dewpoint: 12.2°C (54°F) [RH = 83%]
Pressure (altimeter): 30.20 inches Hg (1022.8 mb)
[Sea-level pressure: 1022.7 mb]
Winds: from the ESE (110 degrees) at 6 MPH (5 knots; 2.6 m/s)
Visibility: 7 miles (11 km)
Ceiling: at least 12,000 feet AGL
Clouds: sky clear below 12,000 feet AGL
Weather: no significant weather observed at this time

METAR text: KBTR 241253Z 07004KT 5SM BR CLR 11/09 A3019 RMK AO2 SLP221 T01060094
Conditions at: KBTR (BATON ROUGE , LA, US) observed 1253 UTC 24 March 2019
Temperature: 10.6°C (51°F)
Dewpoint: 9.4°C (49°F) [RH = 92%]
Pressure (altimeter): 30.19 inches Hg (1022.4 mb)
[Sea-level pressure: 1022.1 mb]
Winds: from the ENE (70 degrees) at 5 MPH (4 knots; 2.1 m/s)
Visibility: 5 miles ( 8 km)
Ceiling: at least 12,000 feet AGL
Clouds: sky clear below 12,000 feet AGL
Weather: BR  (mist)

METAR text: KBTR 241153Z 05003KT 7SM CLR 10/08 A3018 RMK AO2 SLP217 T01000083 10117 20094 53003
Conditions at: KBTR (BATON ROUGE , LA, US) observed 1153 UTC 24 March 2019
Temperature: 10.0°C (50°F)
Dewpoint: 8.3°C (47°F) [RH = 89%]
Pressure (altimeter): 30.18 inches Hg (1022.1 mb)
[Sea-level pressure: 1021.7 mb]
Winds: from the NE (50 degrees) at 3 MPH (3 knots; 1.5 m/s)
Visibility: 7 miles (11 km)
Ceiling: at least 12,000 feet AGL
Clouds: sky clear below 12,000 feet AGL
Weather: no significant weather observed at this time

METAR text: KBTR 241053Z 04003KT 8SM CLR 10/09 A3016 RMK AO2 SLP212 T01000089
Conditions at: KBTR (BATON ROUGE , LA, US) observed 1053 UTC 24 March 2019
Temperature: 10.0°C (50°F)
Dewpoint: 8.9°C (48°F) [RH = 93%]
Pressure (altimeter): 30.16 inches Hg (1021.4 mb)
[Sea-level pressure: 1021.2 mb]
Winds: from the NE (40 degrees) at 3 MPH (3 knots; 1.5 m/s)
Visibility: 8 miles (13 km)
Ceiling: at least 12,000 feet AGL
Clouds: sky clear below 12,000 feet AGL
Weather: no significant weather observed at this time

METAR text: KBTR 240953Z AUTO 06003KT 8SM CLR 10/08 A3015 RMK AO2 SLP210 T01000083
Conditions at: KBTR (BATON ROUGE , LA, US) observed 0953 UTC 24 March 2019
Temperature: 10.0°C (50°F)
Dewpoint: 8.3°C (47°F) [RH = 89%]
Pressure (altimeter): 30.15 inches Hg (1021.1 mb)
[Sea-level pressure: 1021.0 mb]
Winds: from the ENE (60 degrees) at 3 MPH (3 knots; 1.5 m/s)
Visibility: 8 miles (13 km)
Ceiling: at least 12,000 feet AGL
Clouds: sky clear below 12,000 feet AGL
Weather: automated observation with no human augmentation;
there may or may not be significant weather present at this time

METAR text: KBTR 240853Z AUTO 00000KT 10SM CLR 10/08 A3017 RMK AO2 SLP214 T01000083 58001
Conditions at: KBTR (BATON ROUGE , LA, US) observed 0853 UTC 24 March 2019
Temperature: 10.0°C (50°F)
Dewpoint: 8.3°C (47°F) [RH = 89%]
Pressure (altimeter): 30.17 inches Hg (1021.8 mb)
[Sea-level pressure: 1021.4 mb]
Winds: calm
Visibility: 10 or more miles (16+ km)
Ceiling: at least 12,000 feet AGL
Clouds: sky clear below 12,000 feet AGL
Weather: automated observation with no human augmentation;
there may or may not be significant weather present at this time

METAR text: KBTR 240801Z AUTO 00000KT 3SM BR CLR 11/08 A3017 RMK AO2 T01060083
Conditions at: KBTR (BATON ROUGE , LA, US) observed 0801 UTC 24 March 2019
Temperature: 10.6°C (51°F)
Dewpoint: 8.3°C (47°F) [RH = 86%]
Pressure (altimeter): 30.17 inches Hg (1021.8 mb)
Winds: calm
Visibility: 3 miles ( 5 km)
Ceiling: at least 12,000 feet AGL
Clouds: sky clear below 12,000 feet AGL
Weather: BR  (mist)

METAR text: KBTR 240753Z AUTO 00000KT 1 3/4SM BR CLR 11/08 A3017 RMK AO2 SLP216 T01060083
Conditions at: KBTR (BATON ROUGE , LA, US) observed 0753 UTC 24 March 2019
Temperature: 10.6°C (51°F)
Dewpoint: 8.3°C (47°F) [RH = 86%]
Pressure (altimeter): 30.17 inches Hg (1021.8 mb)
[Sea-level pressure: 1021.6 mb]
Winds: calm
Visibility: 1.75 miles (2.82 km)
Ceiling: at least 12,000 feet AGL
Clouds: sky clear below 12,000 feet AGL
Weather: BR  (mist)

METAR text: KBTR 240732Z AUTO 04003KT 1 3/4SM BR CLR 11/08 A3017 RMK AO2 T01060083
Conditions at: KBTR (BATON ROUGE , LA, US) observed 0732 UTC 24 March 2019
Temperature: 10.6°C (51°F)
Dewpoint: 8.3°C (47°F) [RH = 86%]
Pressure (altimeter): 30.17 inches Hg (1021.8 mb)
Winds: from the NE (40 degrees) at 3 MPH (3 knots; 1.5 m/s)
Visibility: 1.75 miles (2.82 km)
Ceiling: at least 12,000 feet AGL
Clouds: sky clear below 12,000 feet AGL
Weather: BR  (mist)

METAR text: KBTR 240653Z AUTO 05003KT 10SM CLR 10/08 A3017 RMK AO2 SLP215 T01000078
Conditions at: KBTR (BATON ROUGE , LA, US) observed 0653 UTC 24 March 2019
Temperature: 10.0°C (50°F)
Dewpoint: 7.8°C (46°F) [RH = 86%]
Pressure (altimeter): 30.17 inches Hg (1021.8 mb)
[Sea-level pressure: 1021.5 mb]
Winds: from the NE (50 degrees) at 3 MPH (3 knots; 1.5 m/s)
Visibility: 10 or more miles (16+ km)
Ceiling: at least 12,000 feet AGL
Clouds: sky clear below 12,000 feet AGL
Weather: automated observation with no human augmentation;
there may or may not be significant weather present at this time

METAR text: KBTR 240553Z AUTO 10003KT 10SM CLR 11/08 A3017 RMK AO2 SLP215 T01060078 10217 20106 402500083 58009
Conditions at: KBTR (BATON ROUGE , LA, US) observed 0553 UTC 24 March 2019
Temperature: 10.6°C (51°F)
Dewpoint: 7.8°C (46°F) [RH = 83%]
Pressure (altimeter): 30.17 inches Hg (1021.8 mb)
[Sea-level pressure: 1021.5 mb]
Winds: from the E (100 degrees) at 3 MPH (3 knots; 1.5 m/s)
Visibility: 10 or more miles (16+ km)
Ceiling: at least 12,000 feet AGL
Clouds: sky clear below 12,000 feet AGL
Weather: automated observation with no human augmentation;
there may or may not be significant weather present at this time

METAR text: KBTR 240453Z AUTO 00000KT 10SM CLR 14/08 A3018 RMK AO2 SLP220 T01390078
Conditions at: KBTR (BATON ROUGE , LA, US) observed 0453 UTC 24 March 2019
Temperature: 13.9°C (57°F)
Dewpoint: 7.8°C (46°F) [RH = 67%]
Pressure (altimeter): 30.18 inches Hg (1022.1 mb)
[Sea-level pressure: 1022.0 mb]
Winds: calm
Visibility: 10 or more miles (16+ km)
Ceiling: at least 12,000 feet AGL
Clouds: sky clear below 12,000 feet AGL
Weather: automated observation with no human augmentation;
there may or may not be significant weather present at this time

METAR text: KBTR 240353Z 16005KT 10SM CLR 16/07 A3019 RMK AO2 SLP223 T01560067
Conditions at: KBTR (BATON ROUGE , LA, US) observed 0353 UTC 24 March 2019
Temperature: 15.6°C (60°F)
Dewpoint: 6.7°C (44°F) [RH = 55%]
Pressure (altimeter): 30.19 inches Hg (1022.4 mb)
[Sea-level pressure: 1022.3 mb]
Winds: from the SSE (160 degrees) at 6 MPH (5 knots; 2.6 m/s)
Visibility: 10 or more miles (16+ km)
Ceiling: at least 12,000 feet AGL
Clouds: sky clear below 12,000 feet AGL
Weather: no significant weather observed at this time

METAR text: KBTR 240253Z 16006KT 10SM CLR 17/08 A3020 RMK AO2 SLP224 T01670078 51017
Conditions at: KBTR (BATON ROUGE , LA, US) observed 0253 UTC 24 March 2019
Temperature: 16.7°C (62°F)
Dewpoint: 7.8°C (46°F) [RH = 56%]
Pressure (altimeter): 30.20 inches Hg (1022.8 mb)
[Sea-level pressure: 1022.4 mb]
Winds: from the SSE (160 degrees) at 7 MPH (6 knots; 3.1 m/s)
Visibility: 10 or more miles (16+ km)
Ceiling: at least 12,000 feet AGL
Clouds: sky clear below 12,000 feet AGL
Weather: no significant weather observed at this time

METAR text: KBTR 240153Z 17006KT 10SM CLR 18/08 A3018 RMK AO2 SLP218 T01780078
Conditions at: KBTR (BATON ROUGE , LA, US) observed 0153 UTC 24 March 2019
Temperature: 17.8°C (64°F)
Dewpoint: 7.8°C (46°F) [RH = 52%]
Pressure (altimeter): 30.18 inches Hg (1022.1 mb)
[Sea-level pressure: 1021.8 mb]
Winds: from the S (170 degrees) at 7 MPH (6 knots; 3.1 m/s)
Visibility: 10 or more miles (16+ km)
Ceiling: at least 12,000 feet AGL
Clouds: sky clear below 12,000 feet AGL
Weather: no significant weather observed at this time

METAR text: KBTR 240053Z 13007KT 10SM CLR 19/08 A3017 RMK AO2 SLP215 T01940083
Conditions at: KBTR (BATON ROUGE , LA, US) observed 0053 UTC 24 March 2019
Temperature: 19.4°C (67°F)
Dewpoint: 8.3°C (47°F) [RH = 49%]
Pressure (altimeter): 30.17 inches Hg (1021.8 mb)
[Sea-level pressure: 1021.5 mb]
Winds: from the SE (130 degrees) at 8 MPH (7 knots; 3.6 m/s)
Visibility: 10 or more miles (16+ km)
Ceiling: at least 12,000 feet AGL
Clouds: sky clear below 12,000 feet AGL
Weather: no significant weather observed at this time

METAR text: KBTR 232353Z 13010KT 10SM CLR 22/08 A3014 RMK AO2 SLP207 T02170083 10250 20217 55002
Conditions at: KBTR (BATON ROUGE , LA, US) observed 2353 UTC 23 March 2019
Temperature: 21.7°C (71°F)
Dewpoint: 8.3°C (47°F) [RH = 42%]
Pressure (altimeter): 30.14 inches Hg (1020.7 mb)
[Sea-level pressure: 1020.7 mb]
Winds: from the SE (130 degrees) at 12 MPH (10 knots; 5.1 m/s)
Visibility: 10 or more miles (16+ km)
Ceiling: at least 12,000 feet AGL
Clouds: sky clear below 12,000 feet AGL
Weather: no significant weather observed at this time

METAR text: KBTR 232253Z 13008KT 10SM CLR 24/07 A3013 RMK AO2 SLP202 T02440067
Conditions at: KBTR (BATON ROUGE , LA, US) observed 2253 UTC 23 March 2019
Temperature: 24.4°C (76°F)
Dewpoint: 6.7°C (44°F) [RH = 32%]
Pressure (altimeter): 30.13 inches Hg (1020.4 mb)
[Sea-level pressure: 1020.2 mb]
Winds: from the SE (130 degrees) at 9 MPH (8 knots; 4.1 m/s)
Visibility: 10 or more miles (16+ km)
Ceiling: at least 12,000 feet AGL
Clouds: sky clear below 12,000 feet AGL
Weather: no significant weather observed at this time

METAR text: KBTR 232153Z 18006KT 10SM CLR 24/07 A3013 RMK AO2 SLP203 T02440067
Conditions at: KBTR (BATON ROUGE , LA, US) observed 2153 UTC 23 March 2019
Temperature: 24.4°C (76°F)
Dewpoint: 6.7°C (44°F) [RH = 32%]
Pressure (altimeter): 30.13 inches Hg (1020.4 mb)
[Sea-level pressure: 1020.3 mb]
Winds: from the S (180 degrees) at 7 MPH (6 knots; 3.1 m/s)
Visibility: 10 or more miles (16+ km)
Ceiling: at least 12,000 feet AGL
Clouds: sky clear below 12,000 feet AGL
Weather: no significant weather observed at this time

METAR text: KBTR 232053Z 23007KT 10SM CLR 24/07 A3015 RMK AO2 SLP209 T02390072 56022
Conditions at: KBTR (BATON ROUGE , LA, US) observed 2053 UTC 23 March 2019
Temperature: 23.9°C (75°F)
Dewpoint: 7.2°C (45°F) [RH = 34%]
Pressure (altimeter): 30.15 inches Hg (1021.1 mb)
[Sea-level pressure: 1020.9 mb]
Winds: from the SW (230 degrees) at 8 MPH (7 knots; 3.6 m/s)
Visibility: 10 or more miles (16+ km)
Ceiling: at least 12,000 feet AGL
Clouds: sky clear below 12,000 feet AGL
Weather: no significant weather observed at this time

METAR text: KBTR 231953Z VRB03KT 10SM CLR 24/07 A3017 RMK AO2 SLP214 T02390067
Conditions at: KBTR (BATON ROUGE , LA, US) observed 1953 UTC 23 March 2019
Temperature: 23.9°C (75°F)
Dewpoint: 6.7°C (44°F) [RH = 33%]
Pressure (altimeter): 30.17 inches Hg (1021.8 mb)
[Sea-level pressure: 1021.4 mb]
Winds: variable direction winds at 3 MPH (3 knots; 1.5 m/s)
Visibility: 10 or more miles (16+ km)
Ceiling: at least 12,000 feet AGL
Clouds: sky clear below 12,000 feet AGL
Weather: no significant weather observed at this time

METAR text: KBTR 231853Z 10SM CLR 24/06 A3019 RMK AO2 SLP223 T02390061
Conditions at: KBTR (BATON ROUGE , LA, US) observed 1853 UTC 23 March 2019
Temperature: 23.9°C (75°F)
Dewpoint: 6.1°C (43°F) [RH = 32%]
Pressure (altimeter): 30.19 inches Hg (1022.4 mb)
[Sea-level pressure: 1022.3 mb]
Winds: missing
Visibility: 10 or more miles (16+ km)
Ceiling: at least 12,000 feet AGL
Clouds: sky clear below 12,000 feet AGL
Weather: no significant weather observed at this time

METAR text: KBTR 231753Z VRB03KT 10SM CLR 23/08 A3022 RMK AO2 SLP231 T02330078 10233 20111 58007
Conditions at: KBTR (BATON ROUGE , LA, US) observed 1753 UTC 23 March 2019
Temperature: 23.3°C (74°F)
Dewpoint: 7.8°C (46°F) [RH = 37%]
Pressure (altimeter): 30.22 inches Hg (1023.5 mb)
[Sea-level pressure: 1023.1 mb]
Winds: variable direction winds at 3 MPH (3 knots; 1.5 m/s)
Visibility: 10 or more miles (16+ km)
Ceiling: at least 12,000 feet AGL
Clouds: sky clear below 12,000 feet AGL
Weather: no significant weather observed at this time

METAR text: KBTR 231653Z 00000KT 10SM CLR 22/09 A3023 RMK AO2 SLP237 T02170094
Conditions at: KBTR (BATON ROUGE , LA, US) observed 1653 UTC 23 March 2019
Temperature: 21.7°C (71°F)
Dewpoint: 9.4°C (49°F) [RH = 45%]
Pressure (altimeter): 30.23 inches Hg (1023.8 mb)
[Sea-level pressure: 1023.7 mb]
Winds: calm
Visibility: 10 or more miles (16+ km)
Ceiling: at least 12,000 feet AGL
Clouds: sky clear below 12,000 feet AGL
Weather: no significant weather observed at this time

METAR text: KBTR 231553Z 00000KT 6SM HZ CLR 19/15 A3025 RMK AO2 SLP241 T01890150
Conditions at: KBTR (BATON ROUGE , LA, US) observed 1553 UTC 23 March 2019
Temperature: 18.9°C (66°F)
Dewpoint: 15.0°C (59°F) [RH = 78%]
Pressure (altimeter): 30.25 inches Hg (1024.5 mb)
[Sea-level pressure: 1024.1 mb]
Winds: calm
Visibility: 6 miles (10 km)
Ceiling: at least 12,000 feet AGL
Clouds: sky clear below 12,000 feet AGL
Weather: HZ  (haze)

METAR text: KBTR 231530Z 00000KT 5SM HZ SCT002 16/14 A3024 RMK AO2 T01560144
Conditions at: KBTR (BATON ROUGE , LA, US) observed 1530 UTC 23 March 2019
Temperature: 15.6°C (60°F)
Dewpoint: 14.4°C (58°F) [RH = 93%]
Pressure (altimeter): 30.24 inches Hg (1024.1 mb)
Winds: calm
Visibility: 5 miles ( 8 km)
Ceiling: at least 12,000 feet AGL
Clouds: scattered clouds at 200 feet AGL
Weather: HZ  (haze)

METAR text: KBTR 231508Z 09003KT 3SM BR OVC002 14/14 A3024 RMK AO2 T01440139
Conditions at: KBTR (BATON ROUGE , LA, US) observed 1508 UTC 23 March 2019
Temperature: 14.4°C (58°F)
Dewpoint: 13.9°C (57°F) [RH = 97%]
Pressure (altimeter): 30.24 inches Hg (1024.1 mb)
Winds: from the E (90 degrees) at 3 MPH (3 knots; 1.5 m/s)
Visibility: 3 miles ( 5 km)
Ceiling: 200 feet AGL
Clouds: overcast cloud deck at 200 feet AGL
Weather: BR  (mist)

METAR text: KBTR 231453Z 06003KT 1/2SM FG OVC002 14/13 A3024 RMK AO2 SLP238 T01390133 51018 RVRNO
Conditions at: KBTR (BATON ROUGE , LA, US) observed 1453 UTC 23 March 2019
Temperature: 13.9°C (57°F)
Dewpoint: 13.3°C (56°F) [RH = 96%]
Pressure (altimeter): 30.24 inches Hg (1024.1 mb)
[Sea-level pressure: 1023.8 mb]
Winds: from the ENE (60 degrees) at 3 MPH (3 knots; 1.5 m/s)
Visibility: 0.50 miles (0.80 km)
Ceiling: 200 feet AGL
Clouds: overcast cloud deck at 200 feet AGL
Weather: FG  (fog)

METAR text: KBTR 231434Z COR 11003KT 1/4SM FG VV002 12/12 A3023 RMK AO2 SLP235 T01220122 RVRNO
Conditions at: KBTR (BATON ROUGE , LA, US) observed 1434 UTC 23 March 2019
Temperature: 12.2°C (54°F)
Dewpoint: 12.2°C (54°F) [RH = 100%]
Pressure (altimeter): 30.23 inches Hg (1023.8 mb)
[Sea-level pressure: 1023.5 mb]
Winds: from the ESE (110 degrees) at 3 MPH (3 knots; 1.5 m/s)
Visibility: 0.25 miles (0.40 km)
Ceiling: indefinite ceiling with vertical visibility of 200 feet AGL
Clouds: obscured sky
Weather: FG  (fog)

METAR text: KBTR 231353Z 11003KT M1/4SM FG VV002 12/12 A3023 RMK AO2 SLP235 T01220122 RVRNO
Conditions at: KBTR (BATON ROUGE , LA, US) observed 1353 UTC 23 March 2019
Temperature: 12.2°C (54°F)
Dewpoint: 12.2°C (54°F) [RH = 100%]
Pressure (altimeter): 30.23 inches Hg (1023.8 mb)
[Sea-level pressure: 1023.5 mb]
Winds: from the ESE (110 degrees) at 3 MPH (3 knots; 1.5 m/s)
Visibility: 0.25 miles (0.40 km)
Ceiling: indefinite ceiling with vertical visibility of 200 feet AGL
Clouds: obscured sky
Weather: FG  (fog)

Forecast for: KBTR (BATON ROUGE , LA, US)
Text: KBTR 242333Z 2500/2524 VRB04KT P6SM FEW040 SCT050 BKN090
Forecast period: 0000 to 1000 UTC 25 March 2019
Forecast type: FROM: standard forecast or significant change
Winds: variable direction winds at 5 MPH (4 knots; 2.1 m/s)
Visibility: 6 or more miles 10+ km)
Ceiling: 9000 feet AGL
Clouds: few clouds at 4000 feet AGL
scattered clouds at 5000 feet AGL
broken clouds at 9000 feet AGL
Weather: no significant weather forecast for this period
Text: FM251000 00000KT 4SM BR BKN015 BKN040
Forecast period: 1000 to 1400 UTC 25 March 2019
Forecast type: FROM: standard forecast or significant change
Winds: calm
Visibility: 4 miles (6 km)
Ceiling: 1500 feet AGL
Clouds: broken clouds at 1500 feet AGL
broken clouds at 4000 feet AGL
Weather: BR  (mist)
Text: FM251400 00000KT P6SM SCT015 BKN025
Forecast period: 1400 to 1600 UTC 25 March 2019
Forecast type: FROM: standard forecast or significant change
Winds: calm
Visibility: 6 or more miles 10+ km)
Ceiling: 2500 feet AGL
Clouds: scattered clouds at 1500 feet AGL
broken clouds at 2500 feet AGL
Weather: no significant weather forecast for this period
Text: FM251600 VRB03KT P6SM SCT020 BKN045
Forecast period: 1600 UTC 25 March 2019 to 0000 UTC 26 March 2019
Forecast type: FROM: standard forecast or significant change
Winds: variable direction winds at 3 MPH (3 knots; 1.5 m/s)
Visibility: 6 or more miles 10+ km)
Ceiling: 4500 feet AGL
Clouds: scattered clouds at 2000 feet AGL
broken clouds at 4500 feet AGL
Weather: no significant weather forecast for this period